Time;durP1;ratioP1;P1;durP2;ratioP2;P2;SDS_P1;SDS_P2;PMS_P1;PMS_P2;Temp;Humidity;BMP_temperature;BMP_pressure;BME280_temperature;BME280_humidity;BME280_pressure;Samples;Min_cycle;Max_cycle;Signal;HPM_P1;HPM_P2
2023/07/05 00:00:50;;;;;;;4.13;1.93;;;18.90;99.90;;;;;;5047422;28;20497;-67
2023/07/05 00:03:16;;;;;;;4.00;1.80;;;18.90;99.90;;;;;;5048932;28;20564;-66
2023/07/05 00:05:41;;;;;;;4.23;1.57;;;18.80;99.90;;;;;;5048986;28;20190;-67
2023/07/05 00:08:07;;;;;;;6.00;1.93;;;18.80;99.90;;;;;;5047437;28;20219;-67
2023/07/05 00:10:33;;;;;;;2.73;1.70;;;18.80;99.90;;;;;;5048521;28;20769;-67
2023/07/05 00:13:01;;;;;;;3.90;1.70;;;18.70;99.90;;;;;;5048627;28;20418;-66
2023/07/05 00:15:29;;;;;;;2.67;1.80;;;18.70;99.90;;;;;;5047028;28;20187;-66
2023/07/05 00:17:55;;;;;;;1.77;1.63;;;18.70;99.90;;;;;;5046763;28;20434;-66
2023/07/05 00:20:22;;;;;;;3.90;1.60;;;18.70;99.90;;;;;;5048350;28;20518;-66
2023/07/05 00:22:47;;;;;;;1.90;1.30;;;18.70;99.90;;;;;;5048434;28;20193;-66
2023/07/05 00:25:13;;;;;;;1.60;1.40;;;18.60;99.90;;;;;;5046858;28;20956;-67
2023/07/05 00:27:39;;;;;;;2.00;1.37;;;18.50;99.90;;;;;;5046844;28;20207;-67
2023/07/05 00:30:05;;;;;;;2.17;1.47;;;18.50;99.90;;;;;;5047805;28;20614;-67
2023/07/05 00:32:30;;;;;;;2.03;1.60;;;18.50;99.90;;;;;;5048301;28;20673;-67
2023/07/05 00:34:56;;;;;;;4.83;1.93;;;18.60;99.90;;;;;;5048213;28;20571;-67
2023/07/05 00:37:22;;;;;;;2.50;1.43;;;18.70;99.90;;;;;;5048322;28;20180;-68
2023/07/05 00:39:47;;;;;;;2.90;1.10;;;18.70;99.90;;;;;;5048354;28;20211;-67
2023/07/05 00:42:13;;;;;;;2.67;1.20;;;18.60;99.90;;;;;;5029912;28;20202;-68
2023/07/05 00:44:38;;;;;;;3.33;1.30;;;18.70;99.90;;;;;;5048632;28;20670;-66
2023/07/05 00:47:07;;;;;;;2.10;1.40;;;18.60;99.90;;;;;;5048142;28;20180;-66
2023/07/05 00:49:35;;;;;;;2.17;1.43;;;18.60;99.90;;;;;;5048114;28;20190;-66
2023/07/05 00:52:06;;;;;;;1.93;1.70;;;18.60;99.90;;;;;;5047992;28;20803;-66
2023/07/05 00:54:38;;;;;;;3.30;1.40;;;18.70;99.90;;;;;;5048180;28;20450;-66
2023/07/05 00:57:09;;;;;;;3.77;1.73;;;18.70;99.90;;;;;;5048026;28;20513;-67
2023/07/05 00:59:46;;;;;;;1.60;1.50;;;18.70;99.90;;;;;;5046645;28;20406;-67
2023/07/05 01:02:14;;;;;;;3.70;1.47;;;18.70;99.90;;;;;;5048032;28;20464;-67
2023/07/05 01:04:40;;;;;;;2.73;1.43;;;18.70;99.90;;;;;;5048019;28;20445;-67
2023/07/05 01:07:06;;;;;;;1.40;1.30;;;18.80;99.90;;;;;;5048311;28;20421;-67
2023/07/05 01:09:32;;;;;;;2.70;1.50;;;18.80;99.90;;;;;;5048098;28;20506;-67
2023/07/05 01:12:19;;;;;;;3.73;1.50;;;18.90;99.90;;;;;;5048484;28;20438;-68
2023/07/05 01:14:56;;;;;;;2.50;1.30;;;18.90;99.90;;;;;;5049018;28;20725;-66
2023/07/05 01:18:03;;;;;;;2.40;1.60;;;18.90;99.90;;;;;;5048374;28;20995;-67
2023/07/05 01:20:50;;;;;;;3.33;1.87;;;18.90;99.90;;;;;;5047851;28;20539;-67
2023/07/05 01:23:44;;;;;;;1.63;1.30;;;19.00;99.90;;;;;;5047885;28;20424;-66
2023/07/05 01:26:18;;;;;;;4.03;1.63;;;19.10;99.90;;;;;;5047758;28;20464;-66
2023/07/05 01:28:54;;;;;;;2.53;1.70;;;19.10;99.90;;;;;;5049018;28;21013;-66
2023/07/05 01:31:19;;;;;;;2.90;1.53;;;19.20;99.90;;;;;;5051546;28;20537;-66
2023/07/05 01:34:18;;;;;;;2.03;1.67;;;19.20;99.90;;;;;;5049988;28;20441;-66
2023/07/05 01:36:44;;;;;;;2.30;1.73;;;19.10;99.90;;;;;;5050153;28;20188;-66
2023/07/05 01:39:10;;;;;;;2.17;1.53;;;19.20;99.90;;;;;;5051419;28;20418;-67
2023/07/05 01:41:35;;;;;;;2.23;1.53;;;19.30;99.90;;;;;;5051271;28;20442;-67
2023/07/05 01:44:02;;;;;;;2.70;1.67;;;19.20;99.90;;;;;;5049921;28;20293;-67
2023/07/05 01:46:52;;;;;;;2.80;1.40;;;19.20;99.90;;;;;;5051283;28;20690;-67
2023/07/05 01:49:31;;;;;;;1.77;1.57;;;19.20;99.90;;;;;;5050627;28;20448;-67
2023/07/05 01:51:59;;;;;;;1.33;1.07;;;19.30;99.90;;;;;;5051297;28;20434;-66
2023/07/05 01:54:41;;;;;;;7.00;2.00;;;19.40;99.90;;;;;;5051117;28;20917;-67
2023/07/05 01:57:22;;;;;;;3.27;1.47;;;19.40;99.90;;;;;;5051164;28;20402;-67
2023/07/05 01:59:55;;;;;;;5.47;1.33;;;19.30;99.90;;;;;;5049641;28;21050;-66
2023/07/05 02:02:26;;;;;;;4.33;1.50;;;19.20;99.90;;;;;;5051118;28;20406;-67
2023/07/05 02:04:52;;;;;;;3.23;1.57;;;19.20;99.90;;;;;;5051130;28;20418;-67
2023/07/05 02:07:27;;;;;;;5.33;1.70;;;19.20;99.90;;;;;;5051069;28;20422;-67
2023/07/05 02:09:53;;;;;;;2.07;1.40;;;19.30;99.90;;;;;;5050783;28;20461;-66
2023/07/05 02:12:19;;;;;;;3.50;1.40;;;19.20;99.90;;;;;;5050799;28;20414;-66
2023/07/05 02:14:44;;;;;;;3.77;1.90;;;19.20;99.90;;;;;;5050859;28;20202;-67
2023/07/05 02:17:10;;;;;;;3.77;1.73;;;19.20;99.90;;;;;;5050796;28;20261;-67
2023/07/05 02:19:36;;;;;;;2.10;1.43;;;19.20;99.90;;;;;;5051046;28;20191;-67
2023/07/05 02:22:02;;;;;;;1.97;1.40;;;19.20;99.90;;;;;;5050732;28;20199;-67
2023/07/05 02:24:28;;;;;;;3.00;1.73;;;19.20;99.90;;;;;;5050749;28;20176;-67
2023/07/05 02:26:55;;;;;;;2.20;1.57;;;19.20;99.90;;;;;;5050812;28;21284;-67
2023/07/05 02:29:20;;;;;;;2.00;1.73;;;19.20;99.90;;;;;;5049326;28;20203;-67
2023/07/05 02:31:46;;;;;;;1.93;1.70;;;19.30;99.90;;;;;;5049233;28;20483;-67
2023/07/05 02:34:12;;;;;;;1.93;1.73;;;19.30;99.90;;;;;;5050771;28;20176;-67
2023/07/05 02:36:38;;;;;;;2.90;1.53;;;19.40;99.90;;;;;;5050660;28;20194;-67
2023/07/05 02:39:04;;;;;;;3.93;1.50;;;19.30;99.90;;;;;;5050083;28;20251;-67
2023/07/05 02:41:29;;;;;;;2.23;1.50;;;19.30;99.90;;;;;;5050210;28;20579;-67
2023/07/05 02:43:55;;;;;;;1.73;1.53;;;19.30;99.90;;;;;;5050455;28;20440;-67
2023/07/05 02:46:23;;;;;;;1.63;1.53;;;19.30;99.90;;;;;;5050596;28;20184;-66
2023/07/05 02:48:48;;;;;;;2.60;1.63;;;19.30;99.90;;;;;;5050727;28;20233;-67
2023/07/05 02:51:14;;;;;;;11.63;1.80;;;19.30;99.90;;;;;;5050182;28;20583;-67
2023/07/05 02:53:39;;;;;;;1.83;1.70;;;19.20;99.90;;;;;;5050485;28;20176;-67
2023/07/05 02:56:06;;;;;;;3.37;1.27;;;19.20;99.90;;;;;;5050317;28;20190;-67
2023/07/05 02:58:31;;;;;;;3.53;1.43;;;19.30;99.90;;;;;;5048609;28;20189;-67
2023/07/05 03:00:57;;;;;;;3.93;1.70;;;19.30;99.90;;;;;;5049962;28;20965;-67
2023/07/05 03:03:23;;;;;;;3.00;1.80;;;19.30;99.90;;;;;;5050178;28;20180;-67
2023/07/05 03:05:56;;;;;;;1.80;1.70;;;19.30;99.90;;;;;;5050256;28;20304;-66
2023/07/05 03:08:22;;;;;;;2.00;1.77;;;19.40;99.90;;;;;;5049000;28;20266;-66
2023/07/05 03:10:47;;;;;;;4.93;1.90;;;19.30;99.90;;;;;;5050298;28;21072;-68
2023/07/05 03:13:13;;;;;;;2.90;1.50;;;19.10;99.90;;;;;;5050509;28;20180;-66
2023/07/05 03:15:38;;;;;;;2.87;1.73;;;18.90;99.90;;;;;;5048992;28;20281;-68
2023/07/05 03:18:04;;;;;;;3.70;1.80;;;18.90;99.90;;;;;;5050745;28;20279;-67
2023/07/05 03:20:30;;;;;;;4.33;1.80;;;18.70;99.90;;;;;;5050494;28;20200;-67
2023/07/05 03:22:55;;;;;;;4.63;2.13;;;18.40;99.90;;;;;;5050474;28;20270;-67
2023/07/05 03:25:21;;;;;;;3.13;1.90;;;18.20;99.90;;;;;;5049153;28;20548;-67
2023/07/05 03:27:46;;;;;;;3.67;2.10;;;18.10;99.90;;;;;;5050067;28;20192;-67
2023/07/05 03:30:12;;;;;;;3.50;2.27;;;17.80;99.90;;;;;;5049676;28;20230;-68
2023/07/05 03:32:40;;;;;;;4.37;2.47;;;17.70;99.90;;;;;;5049817;28;20178;-68
2023/07/05 03:35:05;;;;;;;2.50;2.30;;;17.70;99.90;;;;;;5049883;28;20516;-67
2023/07/05 03:37:31;;;;;;;3.33;2.27;;;17.60;99.90;;;;;;5049711;28;20952;-67
2023/07/05 03:39:56;;;;;;;4.20;2.43;;;17.40;99.90;;;;;;5015496;28;20187;-67
2023/07/05 03:42:22;;;;;;;4.00;2.33;;;17.20;99.90;;;;;;5047943;28;20209;-67
2023/07/05 03:44:48;;;;;;;7.83;2.23;;;17.10;99.90;;;;;;5049449;28;20693;-67
2023/07/05 03:47:13;;;;;;;2.70;1.77;;;17.20;99.90;;;;;;5049391;28;20191;-67
2023/07/05 03:49:39;;;;;;;3.60;1.63;;;17.00;99.90;;;;;;5049035;28;20193;-67
2023/07/05 03:52:05;;;;;;;5.30;1.70;;;17.10;99.90;;;;;;5048522;28;20304;-67
2023/07/05 03:54:30;;;;;;;1.90;1.50;;;17.00;99.90;;;;;;5049262;28;20182;-67
2023/07/05 03:56:56;;;;;;;2.90;1.70;;;17.00;99.90;;;;;;5049140;28;20422;-67
2023/07/05 03:59:22;;;;;;;1.50;1.40;;;17.00;99.90;;;;;;5047748;28;20560;-66
2023/07/05 04:01:47;;;;;;;3.10;2.07;;;17.00;99.90;;;;;;5049134;28;20694;-67
2023/07/05 04:04:13;;;;;;;3.03;1.67;;;16.90;99.90;;;;;;5049303;28;20927;-67
2023/07/05 04:06:38;;;;;;;1.53;1.27;;;16.90;99.90;;;;;;5047737;28;20226;-68
2023/07/05 04:09:04;;;;;;;2.27;1.73;;;16.80;99.90;;;;;;5049162;28;20179;-68
2023/07/05 04:11:29;;;;;;;2.93;1.53;;;16.90;99.90;;;;;;5049032;28;20825;-68
2023/07/05 04:13:56;;;;;;;1.60;1.50;;;16.80;99.90;;;;;;5049724;28;20182;-68
2023/07/05 04:16:24;;;;;;;1.93;1.30;;;16.80;99.90;;;;;;5047979;28;20177;-67
2023/07/05 04:18:55;;;;;;;5.13;1.60;;;16.90;99.90;;;;;;5049386;28;20455;-67
2023/07/05 04:21:22;;;;;;;3.13;1.83;;;16.80;99.90;;;;;;5049493;28;20501;-68
2023/07/05 04:23:48;;;;;;;2.70;1.40;;;16.80;99.90;;;;;;5049581;28;20464;-68
2023/07/05 04:26:20;;;;;;;1.47;1.13;;;16.80;99.90;;;;;;5049519;28;20995;-67
2023/07/05 04:28:46;;;;;;;2.17;1.70;;;16.70;99.90;;;;;;5048912;28;20297;-67
2023/07/05 04:31:16;;;;;;;1.70;1.40;;;16.80;99.90;;;;;;5047328;28;21181;-68
2023/07/05 04:33:42;;;;;;;2.70;1.30;;;16.80;99.90;;;;;;5048815;28;20413;-68
2023/07/05 04:36:07;;;;;;;2.43;1.30;;;16.80;99.90;;;;;;5049076;28;20408;-68
2023/07/05 04:38:33;;;;;;;2.27;1.23;;;16.90;99.90;;;;;;5048841;28;20206;-68
2023/07/05 04:41:00;;;;;;;2.07;1.13;;;16.90;99.90;;;;;;5047164;28;20555;-67
2023/07/05 04:43:26;;;;;;;2.53;1.37;;;17.00;99.90;;;;;;5048511;28;20244;-68
2023/07/05 04:45:57;;;;;;;1.20;1.10;;;16.90;99.90;;;;;;5048741;28;20444;-67
2023/07/05 04:48:27;;;;;;;1.80;1.30;;;17.00;99.90;;;;;;5048426;28;20438;-67
2023/07/05 04:50:54;;;;;;;1.83;1.20;;;17.00;99.90;;;;;;5048599;28;20472;-67
2023/07/05 04:53:21;;;;;;;3.00;1.30;;;17.00;99.90;;;;;;5048835;28;20490;-67
2023/07/05 04:55:48;;;;;;;1.73;1.20;;;17.00;99.90;;;;;;5046361;28;20903;-67
2023/07/05 04:58:15;;;;;;;1.80;1.63;;;17.00;99.90;;;;;;5047033;28;20499;-66
2023/07/05 05:00:46;;;;;;;1.63;1.40;;;17.00;99.90;;;;;;5044831;28;20647;-67
2023/07/05 05:03:16;;;;;;;2.77;1.37;;;17.10;99.90;;;;;;5049228;28;20984;-67
2023/07/05 05:05:47;;;;;;;1.37;1.27;;;17.10;99.90;;;;;;5051002;28;20429;-66
2023/07/05 05:08:13;;;;;;;8.87;1.50;;;17.10;99.90;;;;;;5049595;28;20502;-67
2023/07/05 05:10:39;;;;;;;1.57;1.30;;;17.10;99.90;;;;;;5050531;28;21355;-66
2023/07/05 05:13:07;;;;;;;39.43;4.50;;;17.10;99.90;;;;;;5050533;28;20184;-66
2023/07/05 05:15:39;;;;;;;27.73;3.60;;;17.10;99.90;;;;;;5050644;28;20416;-66
2023/07/05 05:18:09;;;;;;;14.97;2.87;;;17.20;99.90;;;;;;5050777;28;20414;-66
2023/07/05 05:20:38;;;;;;;5.80;2.30;;;17.10;99.90;;;;;;5050562;28;20458;-66
2023/07/05 05:23:04;;;;;;;21.43;4.40;;;17.20;99.90;;;;;;5050478;28;20503;-67
2023/07/05 05:25:30;;;;;;;71.60;6.70;;;17.30;99.90;;;;;;5050342;28;20533;-67
2023/07/05 05:27:55;;;;;;;6.03;1.87;;;17.40;99.90;;;;;;5050309;28;20939;-66
2023/07/05 05:30:21;;;;;;;2.40;1.80;;;17.60;99.90;;;;;;5050273;28;20682;-67
2023/07/05 05:32:47;;;;;;;11.20;2.20;;;17.80;99.90;;;;;;5050403;28;20187;-67
2023/07/05 05:35:14;;;;;;;2.40;1.60;;;17.90;99.90;;;;;;5048856;28;20413;-67
2023/07/05 05:37:40;;;;;;;2.40;1.93;;;18.10;99.90;;;;;;5050276;28;20429;-67
2023/07/05 05:40:07;;;;;;;4.43;2.10;;;18.30;99.90;;;;;;5050196;28;20430;-67
2023/07/05 05:42:33;;;;;;;2.70;1.97;;;18.40;99.90;;;;;;5049940;28;20417;-67
2023/07/05 05:44:59;;;;;;;2.70;2.07;;;18.50;99.90;;;;;;5050177;28;20770;-67
2023/07/05 05:47:24;;;;;;;5.23;2.00;;;18.70;99.90;;;;;;5050105;28;20191;-67
2023/07/05 05:49:50;;;;;;;3.90;2.30;;;18.90;99.90;;;;;;5049871;28;20190;-67
2023/07/05 05:52:15;;;;;;;4.53;2.30;;;19.00;99.90;;;;;;5050683;28;20204;-67
2023/07/05 05:54:41;;;;;;;3.63;2.20;;;19.00;99.90;;;;;;5049186;28;20681;-67
2023/07/05 05:57:08;;;;;;;4.47;2.37;;;19.10;99.90;;;;;;5050915;28;20203;-66
2023/07/05 05:59:33;;;;;;;3.13;2.40;;;19.10;99.90;;;;;;5050578;28;20188;-67
2023/07/05 06:02:00;;;;;;;3.83;1.83;;;19.30;99.90;;;;;;5050488;28;20499;-67
2023/07/05 06:04:26;;;;;;;3.30;1.80;;;19.30;99.90;;;;;;5050436;28;20189;-67
2023/07/05 06:06:52;;;;;;;2.60;1.87;;;19.50;99.90;;;;;;5050221;28;20437;-66
2023/07/05 06:09:17;;;;;;;3.10;1.97;;;19.60;99.90;;;;;;5050193;28;21013;-67
2023/07/05 06:11:43;;;;;;;3.63;1.63;;;19.70;99.90;;;;;;5050083;28;20211;-66
2023/07/05 06:14:09;;;;;;;3.67;2.27;;;19.60;99.90;;;;;;5049331;28;20637;-66
2023/07/05 06:16:35;;;;;;;3.13;1.83;;;19.80;99.90;;;;;;5050137;28;20435;-66
2023/07/05 06:19:00;;;;;;;1.93;1.73;;;19.90;99.90;;;;;;5050261;28;20602;-66
2023/07/05 06:21:26;;;;;;;3.53;1.97;;;20.00;99.90;;;;;;5050006;28;20457;-66
2023/07/05 06:23:52;;;;;;;4.10;2.17;;;20.10;99.90;;;;;;5048716;28;20196;-67
2023/07/05 06:26:21;;;;;;;2.03;1.87;;;20.40;99.90;;;;;;5050008;28;20298;-66
2023/07/05 06:28:46;;;;;;;2.43;2.00;;;20.60;99.90;;;;;;5048232;28;20276;-67
2023/07/05 06:31:12;;;;;;;3.60;1.87;;;20.40;99.90;;;;;;5049399;28;20918;-67
2023/07/05 06:33:39;;;;;;;2.37;1.80;;;20.60;99.90;;;;;;5049687;28;20179;-66
2023/07/05 06:36:06;;;;;;;9.03;2.27;;;20.80;99.90;;;;;;5049774;28;20853;-67
2023/07/05 06:38:32;;;;;;;2.13;1.93;;;20.80;99.90;;;;;;5049862;28;20429;-66
2023/07/05 06:40:58;;;;;;;2.83;2.07;;;20.70;99.90;;;;;;5049466;28;20445;-67
2023/07/05 06:43:25;;;;;;;2.27;1.90;;;20.70;99.90;;;;;;5049783;28;20187;-67
2023/07/05 06:45:53;;;;;;;2.00;1.50;;;20.60;99.90;;;;;;5049674;28;20417;-67
2023/07/05 06:48:19;;;;;;;3.47;1.63;;;20.50;99.90;;;;;;5049688;28;20422;-67
2023/07/05 06:50:52;;;;;;;4.03;1.97;;;20.50;99.90;;;;;;5049498;28;20556;-67
2023/07/05 06:53:17;;;;;;;2.23;2.03;;;20.50;99.90;;;;;;5049967;28;20406;-66
2023/07/05 06:55:43;;;;;;;3.67;2.30;;;20.60;99.90;;;;;;5049791;28;20434;-66
2023/07/05 06:58:08;;;;;;;1.90;1.70;;;20.60;99.90;;;;;;5048100;28;20214;-66
2023/07/05 07:00:34;;;;;;;2.83;1.70;;;20.70;99.90;;;;;;5047537;28;20204;-66
2023/07/05 07:03:00;;;;;;;3.47;1.50;;;20.70;99.90;;;;;;5049175;28;20674;-66
2023/07/05 07:05:25;;;;;;;2.47;1.63;;;20.70;99.90;;;;;;5047707;28;20242;-66
2023/07/05 07:07:51;;;;;;;2.27;1.60;;;20.60;99.90;;;;;;5049282;28;20184;-67
2023/07/05 07:10:17;;;;;;;1.70;1.60;;;20.60;99.90;;;;;;5031549;28;20242;-65
2023/07/05 07:12:43;;;;;;;2.17;1.90;;;20.70;99.90;;;;;;5050021;28;20411;-65
2023/07/05 07:15:09;;;;;;;2.20;1.80;;;20.50;99.90;;;;;;5049962;28;20172;-66
2023/07/05 07:17:34;;;;;;;13.67;4.73;;;20.40;99.90;;;;;;5050020;28;20184;-67
2023/07/05 07:20:00;;;;;;;6.13;3.10;;;19.90;99.90;;;;;;5049979;28;20766;-66
2023/07/05 07:22:26;;;;;;;10.83;2.97;;;19.50;99.90;;;;;;5048428;28;20202;-67
2023/07/05 07:24:51;;;;;;;7.60;3.40;;;19.10;99.90;;;;;;5049882;28;20270;-67
2023/07/05 07:27:18;;;;;;;2.87;2.17;;;18.80;99.90;;;;;;5049512;28;20198;-66
2023/07/05 07:29:44;;;;;;;2.20;1.83;;;18.50;99.90;;;;;;5049190;28;20704;-66
2023/07/05 07:32:10;;;;;;;6.63;2.47;;;18.40;99.90;;;;;;5049167;28;20534;-67
2023/07/05 07:34:36;;;;;;;5.43;2.33;;;18.20;99.90;;;;;;5049191;28;20493;-67
2023/07/05 07:37:01;;;;;;;4.23;2.70;;;18.10;99.90;;;;;;5048933;28;20186;-66
2023/07/05 07:39:29;;;;;;;2.40;2.20;;;18.10;99.90;;;;;;5048721;28;20337;-66
2023/07/05 07:41:55;;;;;;;3.60;3.00;;;18.10;99.90;;;;;;5048495;28;20199;-66
2023/07/05 07:44:20;;;;;;;3.40;2.93;;;18.10;99.90;;;;;;5048426;28;20422;-67
2023/07/05 07:46:46;;;;;;;3.93;2.97;;;18.00;99.90;;;;;;5048089;28;20195;-67
2023/07/05 07:49:12;;;;;;;4.33;2.93;;;18.10;99.90;;;;;;5048141;28;20190;-67
2023/07/05 07:51:44;;;;;;;4.77;3.10;;;18.00;99.90;;;;;;5046580;28;20224;-66
2023/07/05 07:54:15;;;;;;;3.43;2.60;;;18.10;99.90;;;;;;5047740;28;20421;-67
2023/07/05 07:56:46;;;;;;;3.33;3.00;;;18.00;99.90;;;;;;5047732;28;20416;-67
2023/07/05 07:59:11;;;;;;;6.40;2.87;;;18.00;99.90;;;;;;5047653;28;20496;-66
2023/07/05 08:01:39;;;;;;;3.67;1.93;;;17.90;99.90;;;;;;5047437;28;20468;-66
2023/07/05 08:04:08;;;;;;;1.80;1.10;;;17.80;99.90;;;;;;5046068;28;20366;-66
2023/07/05 08:06:38;;;;;;;2.33;1.30;;;17.70;99.90;;;;;;5029858;28;20432;-67
2023/07/05 08:09:05;;;;;;;2.53;1.30;;;17.70;99.90;;;;;;5047486;28;20528;-66
2023/07/05 08:11:31;;;;;;;1.20;1.10;;;17.70;99.90;;;;;;5047283;28;20463;-67
2023/07/05 08:13:56;;;;;;;1.47;0.90;;;17.60;99.90;;;;;;5047584;28;20431;-65
2023/07/05 08:16:22;;;;;;;1.73;1.10;;;17.50;99.90;;;;;;5045886;28;20183;-66
2023/07/05 08:18:48;;;;;;;1.10;1.00;;;17.50;99.90;;;;;;5045825;28;20303;-67
2023/07/05 08:21:14;;;;;;;3.50;1.40;;;17.30;99.90;;;;;;5047312;28;21004;-66
2023/07/05 08:23:44;;;;;;;2.23;1.10;;;17.10;99.90;;;;;;5047130;28;20573;-65
2023/07/05 08:26:11;;;;;;;3.20;1.20;;;17.00;99.90;;;;;;5047132;28;20424;-66
2023/07/05 08:28:37;;;;;;;2.57;1.00;;;17.00;99.90;;;;;;5046805;28;20439;-66
2023/07/05 08:31:04;;;;;;;1.80;1.00;;;16.90;99.90;;;;;;5045971;28;20477;-64
2023/07/05 08:33:32;;;;;;;1.10;0.60;;;16.80;99.90;;;;;;5047581;28;20416;-66
2023/07/05 08:36:32;;;;;;;1.70;1.00;;;16.60;99.90;;;;;;5047718;28;20419;-66
2023/07/05 08:38:59;;;;;;;1.73;0.90;;;16.60;99.90;;;;;;5047570;28;20411;-66
2023/07/05 08:41:42;;;;;;;4.10;0.90;;;16.60;99.90;;;;;;5047760;28;20502;-66
2023/07/05 08:44:35;;;;;;;2.30;1.23;;;16.60;99.90;;;;;;5047795;28;20420;-66
2023/07/05 08:47:08;;;;;;;1.00;0.80;;;16.60;99.90;;;;;;5047771;28;20446;-66
2023/07/05 08:49:50;;;;;;;1.97;1.30;;;16.60;99.90;;;;;;5047766;28;20411;-66
2023/07/05 08:52:25;;;;;;;1.87;1.10;;;16.80;99.90;;;;;;5047918;28;20429;-65
2023/07/05 08:55:00;;;;;;;2.80;1.20;;;16.80;99.90;;;;;;5047652;28;20410;-67
2023/07/05 08:57:33;;;;;;;2.83;1.13;;;16.80;99.90;;;;;;5047591;28;20844;-66
2023/07/05 09:00:11;;;;;;;1.23;1.10;;;16.80;99.90;;;;;;5047367;28;20447;-65
2023/07/05 09:02:38;;;;;;;3.17;1.60;;;16.90;99.90;;;;;;5047521;28;21134;-66
2023/07/05 09:05:16;;;;;;;2.80;1.57;;;16.90;99.90;;;;;;5047481;28;20931;-66
2023/07/05 09:07:50;;;;;;;1.97;1.40;;;17.00;99.90;;;;;;5047685;28;20404;-66
2023/07/05 09:10:28;;;;;;;2.70;1.50;;;17.00;99.90;;;;;;5047353;28;20573;-66
2023/07/05 09:13:11;;;;;;;2.80;1.57;;;17.10;99.90;;;;;;5047499;28;20408;-66
2023/07/05 09:16:21;;;;;;;3.13;1.50;;;17.00;99.90;;;;;;5047169;28;20473;-65
2023/07/05 09:19:09;;;;;;;2.50;1.60;;;17.20;99.90;;;;;;5047323;28;20914;-66
2023/07/05 09:21:46;;;;;;;2.13;1.30;;;17.50;99.90;;;;;;5047189;28;20433;-66
2023/07/05 09:24:35;;;;;;;2.20;1.37;;;17.60;99.90;;;;;;5047256;28;20413;-65
2023/07/05 09:27:18;;;;;;;3.50;1.43;;;17.70;99.90;;;;;;5045595;28;20427;-65
2023/07/05 09:29:47;;;;;;;2.17;1.60;;;17.90;99.90;;;;;;5046733;28;20448;-65
2023/07/05 09:32:18;;;;;;;9.00;1.43;;;18.30;99.90;;;;;;5045454;28;20905;-65
2023/07/05 09:34:50;;;;;;;1.50;1.20;;;18.60;99.90;;;;;;5046860;28;21282;-66
2023/07/05 09:37:48;;;;;;;2.33;1.40;;;18.60;99.90;;;;;;5046568;28;20425;-66
2023/07/05 09:40:22;;;;;;;2.87;1.70;;;18.40;99.90;;;;;;5046344;28;21280;-66
2023/07/05 09:42:55;;;;;;;4.70;2.03;;;18.50;99.90;;;;;;5046263;28;20546;-66
2023/07/05 09:45:21;;;;;;;3.03;1.50;;;18.50;99.90;;;;;;5046353;28;20516;-67
2023/07/05 09:47:50;;;;;;;2.30;1.70;;;18.60;99.90;;;;;;5046462;28;20943;-65
2023/07/05 09:50:19;;;;;;;18.33;1.60;;;18.60;99.90;;;;;;5046952;28;21287;-67
2023/07/05 09:52:50;;;;;;;1.87;1.73;;;19.20;99.90;;;;;;5050022;28;20414;-67
2023/07/05 09:55:18;;;;;;;5.00;1.87;;;19.50;99.90;;;;;;5049903;28;20423;-66
2023/07/05 09:57:45;;;;;;;4.07;1.60;;;19.90;99.90;;;;;;5049877;28;20415;-66
2023/07/05 10:00:36;;;;;;;2.33;1.50;;;20.10;99.90;;;;;;5048165;28;20520;-66
2023/07/05 10:03:10;;;;;;;2.03;1.30;;;20.10;99.90;;;;;;5049940;28;20414;-66
2023/07/05 10:05:37;;;;;;;1.77;1.23;;;20.00;99.90;;;;;;5049950;28;21155;-66
2023/07/05 10:08:13;;;;;;;7.83;1.70;;;20.10;99.90;;;;;;5049681;28;20929;-66
2023/07/05 10:10:42;;;;;;;3.30;1.70;;;20.10;99.90;;;;;;5049251;28;20503;-65
2023/07/05 10:13:16;;;;;;;7.33;1.90;;;20.20;99.90;;;;;;5049505;28;20926;-65
2023/07/05 10:15:47;;;;;;;2.17;1.50;;;20.00;99.90;;;;;;5049696;28;20408;-67
2023/07/05 10:18:30;;;;;;;3.53;1.60;;;19.90;99.90;;;;;;5048223;28;20418;-66
2023/07/05 10:20:58;;;;;;;2.03;1.63;;;20.10;99.90;;;;;;5049403;28;20438;-66
2023/07/05 10:23:25;;;;;;;2.50;1.70;;;20.20;99.90;;;;;;5049397;28;20453;-67
2023/07/05 10:25:53;;;;;;;3.13;1.77;;;20.50;99.90;;;;;;5049591;28;20429;-66
2023/07/05 10:28:26;;;;;;;2.73;1.80;;;20.70;99.90;;;;;;5048931;28;20452;-66
2023/07/05 10:30:56;;;;;;;1.80;1.70;;;20.90;99.90;;;;;;5047577;28;20612;-66
2023/07/05 10:33:25;;;;;;;2.80;1.87;;;20.90;99.90;;;;;;5049220;28;20437;-67
2023/07/05 10:36:04;;;;;;;2.27;1.67;;;21.20;99.90;;;;;;5049141;28;21229;-66
2023/07/05 10:38:31;;;;;;;2.13;1.93;;;21.00;99.90;;;;;;5049643;28;20413;-66
2023/07/05 10:41:31;;;;;;;1.50;1.40;;;21.30;99.90;;;;;;5049098;28;20438;-66
2023/07/05 10:44:11;;;;;;;2.37;1.80;;;21.90;99.90;;;;;;5048438;28;20862;-67
2023/07/05 10:46:38;;;;;;;2.57;2.13;;;22.10;99.90;;;;;;5049444;28;20517;-66
2023/07/05 10:49:11;;;;;;;4.37;1.70;;;22.10;99.90;;;;;;5048924;28;20426;-67
2023/07/05 10:51:40;;;;;;;4.53;2.13;;;22.30;99.90;;;;;;5048650;28;20466;-67
2023/07/05 10:54:19;;;;;;;4.23;1.63;;;22.30;99.90;;;;;;5048740;28;21036;-66
2023/07/05 10:56:47;;;;;;;3.83;1.70;;;22.40;99.90;;;;;;5049275;28;20414;-67
2023/07/05 10:59:18;;;;;;;3.60;2.20;;;22.70;99.90;;;;;;5048648;28;20421;-67
2023/07/05 11:02:01;;;;;;;4.47;2.23;;;23.00;99.90;;;;;;5048240;28;20869;-66
2023/07/05 11:04:33;;;;;;;1.80;1.70;;;23.30;99.90;;;;;;5048625;28;20489;-66
2023/07/05 11:07:10;;;;;;;5.30;2.57;;;23.70;99.90;;;;;;5048455;28;20421;-67
2023/07/05 11:09:37;;;;;;;2.20;1.93;;;23.60;99.90;;;;;;5048769;28;20414;-66
2023/07/05 11:12:21;;;;;;;2.40;2.17;;;23.50;99.90;;;;;;5046656;28;20475;-66
2023/07/05 11:14:48;;;;;;;3.30;2.00;;;23.80;99.90;;;;;;5048577;28;20887;-68
2023/07/05 11:17:40;;;;;;;4.30;2.07;;;23.80;99.90;;;;;;5030454;28;20416;-66
2023/07/05 11:20:42;;;;;;;3.03;2.23;;;23.70;99.90;;;;;;5048058;28;20945;-67
2023/07/05 11:23:09;;;;;;;2.20;2.03;;;23.90;99.90;;;;;;5047076;28;20429;-65
2023/07/05 11:26:08;;;;;;;2.93;2.27;;;23.90;99.90;;;;;;5048346;28;20417;-74
2023/07/05 11:28:35;;;;;;;5.40;1.80;;;24.10;99.90;;;;;;5035004;28;20542;-73
2023/07/05 11:31:05;;;;;;;4.50;2.33;;;23.80;99.50;;;;;;5048315;28;20471;-73
2023/07/05 11:33:31;;;;;;;2.77;2.57;;;24.10;99.90;;;;;;5046925;28;20793;-73
2023/07/05 11:36:08;;;;;;;2.53;2.10;;;24.30;98.80;;;;;;5048463;28;20435;-73
2023/07/05 11:38:37;;;;;;;3.00;2.63;;;24.70;98.60;;;;;;5048575;28;20272;-73
2023/07/05 11:41:05;;;;;;;2.53;2.33;;;24.90;93.40;;;;;;5047736;28;21088;-73
2023/07/05 11:43:41;;;;;;;2.67;2.40;;;25.00;93.80;;;;;;5048139;28;20917;-73
2023/07/05 11:46:37;;;;;;;2.60;2.37;;;25.00;91.40;;;;;;5047740;28;20505;-73
2023/07/05 11:49:17;;;;;;;4.70;3.07;;;25.30;92.90;;;;;;5048152;28;20932;-73
2023/07/05 11:51:44;;;;;;;4.37;2.90;;;25.30;91.10;;;;;;5048309;28;20918;-73
2023/07/05 11:54:10;;;;;;;3.00;2.53;;;25.40;90.30;;;;;;5048442;28;20501;-72
2023/07/05 11:56:39;;;;;;;4.33;2.03;;;25.40;91.20;;;;;;5047017;28;20556;-73
2023/07/05 11:59:08;;;;;;;2.63;2.07;;;25.20;90.60;;;;;;5046945;28;20444;-73
2023/07/05 12:01:37;;;;;;;2.40;1.97;;;25.20;90.60;;;;;;5047752;28;20442;-73
2023/07/05 12:04:06;;;;;;;3.23;2.47;;;25.50;90.00;;;;;;5047896;28;20461;-72
2023/07/05 12:06:42;;;;;;;2.20;2.00;;;25.60;92.40;;;;;;5046478;28;20433;-73
2023/07/05 12:09:15;;;;;;;2.50;2.30;;;25.90;92.70;;;;;;5048147;28;20509;-72
2023/07/05 12:11:42;;;;;;;2.50;2.30;;;26.00;95.30;;;;;;5046299;28;20474;-72
2023/07/05 12:14:16;;;;;;;3.60;2.67;;;26.00;99.90;;;;;;5047996;28;20485;-72
2023/07/05 12:16:43;;;;;;;3.40;2.07;;;26.20;99.90;;;;;;5047806;28;20834;-73
2023/07/05 12:19:18;;;;;;;2.23;2.00;;;26.40;99.40;;;;;;5046580;28;20410;-72
2023/07/05 12:21:52;;;;;;;2.10;1.87;;;26.40;99.90;;;;;;5047616;28;20507;-73
2023/07/05 12:24:18;;;;;;;2.40;2.20;;;26.30;99.90;;;;;;5046287;28;20428;-73
2023/07/05 12:26:44;;;;;;;3.20;2.60;;;26.30;99.90;;;;;;5048071;28;20425;-72
2023/07/05 12:29:36;;;;;;;3.43;2.47;;;26.20;99.90;;;;;;5047740;28;20245;-72
2023/07/05 12:32:07;;;;;;;4.50;2.73;;;26.30;99.40;;;;;;5047412;28;20648;-72
2023/07/05 12:34:34;;;;;;;3.50;2.70;;;26.50;99.90;;;;;;5048022;28;20484;-73
2023/07/05 12:37:00;;;;;;;2.70;2.50;;;26.50;99.90;;;;;;5046218;28;20461;-72
2023/07/05 12:39:26;;;;;;;3.00;2.53;;;26.50;99.90;;;;;;5047884;28;20189;-73
2023/07/05 12:42:05;;;;;;;3.37;2.50;;;26.60;99.90;;;;;;5046158;28;20461;-73
2023/07/05 12:44:33;;;;;;;3.17;2.87;;;26.60;99.90;;;;;;5046556;28;20191;-73
2023/07/05 12:47:16;;;;;;;2.23;2.03;;;26.10;99.90;;;;;;5046198;28;20509;-73
2023/07/05 12:49:43;;;;;;;6.70;2.90;;;26.40;99.90;;;;;;5046000;28;20503;-73
2023/07/05 12:52:20;;;;;;;3.23;2.90;;;26.60;99.90;;;;;;5047081;28;20563;-73
2023/07/05 12:54:46;;;;;;;2.70;2.50;;;26.60;99.90;;;;;;5045591;28;20433;-73
2023/07/05 12:57:38;;;;;;;3.57;2.50;;;26.50;99.90;;;;;;5046802;28;20440;-72
2023/07/05 13:00:09;;;;;;;2.47;2.20;;;26.80;99.90;;;;;;5046333;28;20204;-72